sensor_id;sensor_type;location;lat;lon;timestamp;temperature;humidity
49549;DHT22;35450;44.518;7.466;2023-05-10T00:01:36;17.20;99.90
49549;DHT22;35450;44.518;7.466;2023-05-10T00:04:40;17.00;99.90
49549;DHT22;35450;44.518;7.466;2023-05-10T00:07:44;17.10;99.90
49549;DHT22;35450;44.518;7.466;2023-05-10T00:10:49;17.10;99.90
49549;DHT22;35450;44.518;7.466;2023-05-10T00:13:53;17.10;99.90
49549;DHT22;35450;44.518;7.466;2023-05-10T00:16:57;17.20;99.90
49549;DHT22;35450;44.518;7.466;2023-05-10T00:20:00;17.20;99.90
49549;DHT22;35450;44.518;7.466;2023-05-10T00:23:04;17.10;99.90
49549;DHT22;35450;44.518;7.466;2023-05-10T00:26:08;17.10;99.90
49549;DHT22;35450;44.518;7.466;2023-05-10T00:29:14;17.10;99.90
49549;DHT22;35450;44.518;7.466;2023-05-10T00:32:19;17.20;99.90
49549;DHT22;35450;44.518;7.466;2023-05-10T00:35:23;17.30;99.90
49549;DHT22;35450;44.518;7.466;2023-05-10T00:38:26;17.20;99.90
49549;DHT22;35450;44.518;7.466;2023-05-10T00:41:30;17.10;99.90
49549;DHT22;35450;44.518;7.466;2023-05-10T00:44:37;17.20;99.90
49549;DHT22;35450;44.518;7.466;2023-05-10T00:47:43;17.10;99.90
49549;DHT22;35450;44.518;7.466;2023-05-10T00:50:47;17.00;99.90
49549;DHT22;35450;44.518;7.466;2023-05-10T00:53:51;16.90;99.90
49549;DHT22;35450;44.518;7.466;2023-05-10T00:56:56;17.00;99.90
49549;DHT22;35450;44.518;7.466;2023-05-10T01:00:01;16.90;99.90
49549;DHT22;35450;44.518;7.466;2023-05-10T01:03:06;17.00;99.90
49549;DHT22;35450;44.518;7.466;2023-05-10T01:06:10;17.10;99.90
49549;DHT22;35450;44.518;7.466;2023-05-10T01:09:15;17.00;99.90
49549;DHT22;35450;44.518;7.466;2023-05-10T01:12:19;17.10;99.90
49549;DHT22;35450;44.518;7.466;2023-05-10T01:15:23;17.10;99.90
49549;DHT22;35450;44.518;7.466;2023-05-10T01:18:28;17.20;99.90
49549;DHT22;35450;44.518;7.466;2023-05-10T01:32:29;16.90;99.90
49549;DHT22;35450;44.518;7.466;2023-05-10T01:35:55;17.00;99.90
49549;DHT22;35450;44.518;7.466;2023-05-10T01:39:15;17.00;99.90
49549;DHT22;35450;44.518;7.466;2023-05-10T01:42:23;17.00;99.90
49549;DHT22;35450;44.518;7.466;2023-05-10T01:45:50;17.10;99.90
49549;DHT22;35450;44.518;7.466;2023-05-10T01:48:57;17.00;99.90
49549;DHT22;35450;44.518;7.466;2023-05-10T01:52:14;17.00;99.90
49549;DHT22;35450;44.518;7.466;2023-05-10T01:55:21;17.00;99.90
49549;DHT22;35450;44.518;7.466;2023-05-10T01:58:31;16.90;99.90
49549;DHT22;35450;44.518;7.466;2023-05-10T02:01:36;16.80;99.90
49549;DHT22;35450;44.518;7.466;2023-05-10T02:04:42;16.80;99.90
49549;DHT22;35450;44.518;7.466;2023-05-10T02:07:47;16.50;99.90
49549;DHT22;35450;44.518;7.466;2023-05-10T02:10:54;16.40;99.90
49549;DHT22;35450;44.518;7.466;2023-05-10T02:14:00;16.30;99.90
49549;DHT22;35450;44.518;7.466;2023-05-10T02:17:07;16.20;99.90
49549;DHT22;35450;44.518;7.466;2023-05-10T02:20:12;16.10;99.90
49549;DHT22;35450;44.518;7.466;2023-05-10T02:23:18;15.80;99.90
49549;DHT22;35450;44.518;7.466;2023-05-10T02:26:23;15.60;99.90
49549;DHT22;35450;44.518;7.466;2023-05-10T02:29:28;15.40;99.90
49549;DHT22;35450;44.518;7.466;2023-05-10T02:32:35;15.40;99.90
49549;DHT22;35450;44.518;7.466;2023-05-10T02:35:40;15.40;99.90
49549;DHT22;35450;44.518;7.466;2023-05-10T02:38:46;15.30;99.90
49549;DHT22;35450;44.518;7.466;2023-05-10T02:41:52;15.20;99.90
49549;DHT22;35450;44.518;7.466;2023-05-10T02:45:01;15.20;99.90
49549;DHT22;35450;44.518;7.466;2023-05-10T02:48:08;15.30;99.90
49549;DHT22;35450;44.518;7.466;2023-05-10T02:51:12;15.30;99.90
49549;DHT22;35450;44.518;7.466;2023-05-10T02:54:24;15.40;99.90
49549;DHT22;35450;44.518;7.466;2023-05-10T02:57:34;15.30;99.90
49549;DHT22;35450;44.518;7.466;2023-05-10T03:00:41;15.50;99.90
49549;DHT22;35450;44.518;7.466;2023-05-10T03:03:45;15.60;99.90
49549;DHT22;35450;44.518;7.466;2023-05-10T03:06:50;15.60;99.90
49549;DHT22;35450;44.518;7.466;2023-05-10T03:09:54;15.60;99.90
49549;DHT22;35450;44.518;7.466;2023-05-10T03:13:16;15.70;99.90
49549;DHT22;35450;44.518;7.466;2023-05-10T03:16:29;15.70;99.90
49549;DHT22;35450;44.518;7.466;2023-05-10T03:19:56;15.60;99.90
49549;DHT22;35450;44.518;7.466;2023-05-10T03:23:22;15.60;99.90
49549;DHT22;35450;44.518;7.466;2023-05-10T03:26:29;15.60;99.90
49549;DHT22;35450;44.518;7.466;2023-05-10T03:29:46;15.30;99.90
49549;DHT22;35450;44.518;7.466;2023-05-10T03:32:51;15.40;99.90
49549;DHT22;35450;44.518;7.466;2023-05-10T03:35:55;15.30;99.90
49549;DHT22;35450;44.518;7.466;2023-05-10T03:38:59;15.30;99.90
49549;DHT22;35450;44.518;7.466;2023-05-10T03:42:04;15.20;99.90
49549;DHT22;35450;44.518;7.466;2023-05-10T03:45:09;15.20;99.90
49549;DHT22;35450;44.518;7.466;2023-05-10T03:48:34;15.20;99.90
49549;DHT22;35450;44.518;7.466;2023-05-10T03:51:38;14.80;99.90
49549;DHT22;35450;44.518;7.466;2023-05-10T03:54:42;15.00;99.90
49549;DHT22;35450;44.518;7.466;2023-05-10T03:57:47;14.90;99.90
49549;DHT22;35450;44.518;7.466;2023-05-10T04:00:53;14.80;99.90
49549;DHT22;35450;44.518;7.466;2023-05-10T04:03:58;14.70;99.90
49549;DHT22;35450;44.518;7.466;2023-05-10T04:07:03;14.70;99.90
49549;DHT22;35450;44.518;7.466;2023-05-10T04:10:07;14.70;99.90
49549;DHT22;35450;44.518;7.466;2023-05-10T04:13:11;14.60;99.90
49549;DHT22;35450;44.518;7.466;2023-05-10T04:16:15;14.70;99.90
49549;DHT22;35450;44.518;7.466;2023-05-10T04:19:19;14.70;99.90
49549;DHT22;35450;44.518;7.466;2023-05-10T04:22:23;14.70;99.90
49549;DHT22;35450;44.518;7.466;2023-05-10T04:25:27;14.50;99.90
49549;DHT22;35450;44.518;7.466;2023-05-10T04:28:31;14.50;99.90
49549;DHT22;35450;44.518;7.466;2023-05-10T04:31:35;14.40;99.90
49549;DHT22;35450;44.518;7.466;2023-05-10T04:34:40;14.30;99.90
49549;DHT22;35450;44.518;7.466;2023-05-10T04:37:44;14.30;99.90
49549;DHT22;35450;44.518;7.466;2023-05-10T04:40:48;14.20;99.90
49549;DHT22;35450;44.518;7.466;2023-05-10T04:43:52;14.30;99.90
49549;DHT22;35450;44.518;7.466;2023-05-10T04:46:56;14.30;99.90
49549;DHT22;35450;44.518;7.466;2023-05-10T04:50:00;14.20;99.90
49549;DHT22;35450;44.518;7.466;2023-05-10T04:53:04;13.90;99.90
49549;DHT22;35450;44.518;7.466;2023-05-10T04:56:09;13.90;99.90
49549;DHT22;35450;44.518;7.466;2023-05-10T04:59:13;13.90;99.90
49549;DHT22;35450;44.518;7.466;2023-05-10T05:02:17;13.90;99.90
49549;DHT22;35450;44.518;7.466;2023-05-10T05:05:20;13.90;99.90
49549;DHT22;35450;44.518;7.466;2023-05-10T05:08:24;13.80;99.90
49549;DHT22;35450;44.518;7.466;2023-05-10T05:11:29;13.90;99.90
49549;DHT22;35450;44.518;7.466;2023-05-10T05:14:33;14.00;99.90
49549;DHT22;35450;44.518;7.466;2023-05-10T05:17:37;13.80;99.90
49549;DHT22;35450;44.518;7.466;2023-05-10T05:20:41;13.70;99.90
49549;DHT22;35450;44.518;7.466;2023-05-10T05:23:45;13.70;99.90
49549;DHT22;35450;44.518;7.466;2023-05-10T05:26:49;13.60;99.90
49549;DHT22;35450;44.518;7.466;2023-05-10T05:29:53;13.60;99.90
49549;DHT22;35450;44.518;7.466;2023-05-10T05:32:58;13.60;99.90
49549;DHT22;35450;44.518;7.466;2023-05-10T05:36:03;13.80;99.90
49549;DHT22;35450;44.518;7.466;2023-05-10T05:39:07;13.70;99.90
49549;DHT22;35450;44.518;7.466;2023-05-10T05:42:12;13.60;99.90
49549;DHT22;35450;44.518;7.466;2023-05-10T05:45:17;13.70;99.90
49549;DHT22;35450;44.518;7.466;2023-05-10T05:48:21;13.70;99.90
49549;DHT22;35450;44.518;7.466;2023-05-10T05:51:25;13.70;99.90
49549;DHT22;35450;44.518;7.466;2023-05-10T05:54:30;13.80;99.90
49549;DHT22;35450;44.518;7.466;2023-05-10T05:57:34;13.70;99.90
49549;DHT22;35450;44.518;7.466;2023-05-10T06:00:38;13.80;99.90
49549;DHT22;35450;44.518;7.466;2023-05-10T06:03:42;13.70;99.90
49549;DHT22;35450;44.518;7.466;2023-05-10T06:06:46;13.80;99.90
49549;DHT22;35450;44.518;7.466;2023-05-10T06:09:51;13.60;99.90
49549;DHT22;35450;44.518;7.466;2023-05-10T06:12:56;13.70;99.90
49549;DHT22;35450;44.518;7.466;2023-05-10T06:16:00;13.70;99.90
49549;DHT22;35450;44.518;7.466;2023-05-10T06:19:04;13.70;99.90
49549;DHT22;35450;44.518;7.466;2023-05-10T06:22:08;13.70;99.90
49549;DHT22;35450;44.518;7.466;2023-05-10T06:25:13;13.70;99.90
49549;DHT22;35450;44.518;7.466;2023-05-10T06:28:21;13.80;99.90
49549;DHT22;35450;44.518;7.466;2023-05-10T06:31:26;13.90;99.90
49549;DHT22;35450;44.518;7.466;2023-05-10T06:34:30;13.90;99.90
49549;DHT22;35450;44.518;7.466;2023-05-10T06:37:39;14.00;99.90
49549;DHT22;35450;44.518;7.466;2023-05-10T06:40:43;14.10;99.90
49549;DHT22;35450;44.518;7.466;2023-05-10T06:43:51;14.20;99.90
49549;DHT22;35450;44.518;7.466;2023-05-10T06:46:56;14.10;99.90
49549;DHT22;35450;44.518;7.466;2023-05-10T06:50:03;14.00;99.90
49549;DHT22;35450;44.518;7.466;2023-05-10T06:53:08;14.00;99.90
49549;DHT22;35450;44.518;7.466;2023-05-10T06:56:18;13.90;99.90
49549;DHT22;35450;44.518;7.466;2023-05-10T06:59:28;14.10;99.90
49549;DHT22;35450;44.518;7.466;2023-05-10T07:02:32;14.20;99.90
49549;DHT22;35450;44.518;7.466;2023-05-10T07:05:39;14.30;99.90
49549;DHT22;35450;44.518;7.466;2023-05-10T07:08:43;14.20;99.90
49549;DHT22;35450;44.518;7.466;2023-05-10T07:11:47;14.10;99.90
49549;DHT22;35450;44.518;7.466;2023-05-10T07:14:51;13.90;99.90
49549;DHT22;35450;44.518;7.466;2023-05-10T07:17:56;14.00;99.90
49549;DHT22;35450;44.518;7.466;2023-05-10T07:21:01;14.10;99.90
49549;DHT22;35450;44.518;7.466;2023-05-10T07:24:05;14.20;99.90
49549;DHT22;35450;44.518;7.466;2023-05-10T07:27:10;14.20;99.90
49549;DHT22;35450;44.518;7.466;2023-05-10T07:30:13;14.30;99.90
49549;DHT22;35450;44.518;7.466;2023-05-10T07:33:18;14.50;99.90
49549;DHT22;35450;44.518;7.466;2023-05-10T07:36:22;14.60;99.90
49549;DHT22;35450;44.518;7.466;2023-05-10T07:39:26;14.80;99.90
49549;DHT22;35450;44.518;7.466;2023-05-10T07:42:30;14.90;99.90
49549;DHT22;35450;44.518;7.466;2023-05-10T07:45:34;15.00;99.90
49549;DHT22;35450;44.518;7.466;2023-05-10T07:48:38;15.10;99.90
49549;DHT22;35450;44.518;7.466;2023-05-10T07:51:42;15.10;99.90
49549;DHT22;35450;44.518;7.466;2023-05-10T07:54:47;15.20;99.90
49549;DHT22;35450;44.518;7.466;2023-05-10T07:57:51;15.10;99.90
49549;DHT22;35450;44.518;7.466;2023-05-10T08:00:55;15.10;99.90
49549;DHT22;35450;44.518;7.466;2023-05-10T08:04:00;15.10;99.90
49549;DHT22;35450;44.518;7.466;2023-05-10T08:07:04;15.10;99.90
49549;DHT22;35450;44.518;7.466;2023-05-10T08:10:09;14.80;99.90
49549;DHT22;35450;44.518;7.466;2023-05-10T08:13:15;14.70;99.90
49549;DHT22;35450;44.518;7.466;2023-05-10T08:16:19;14.70;99.90
49549;DHT22;35450;44.518;7.466;2023-05-10T08:19:23;14.90;99.90
49549;DHT22;35450;44.518;7.466;2023-05-10T08:22:27;15.00;99.90
49549;DHT22;35450;44.518;7.466;2023-05-10T08:25:31;15.10;99.90
49549;DHT22;35450;44.518;7.466;2023-05-10T08:28:36;15.20;99.90
49549;DHT22;35450;44.518;7.466;2023-05-10T08:31:40;15.40;99.90
49549;DHT22;35450;44.518;7.466;2023-05-10T08:34:44;15.50;99.90
49549;DHT22;35450;44.518;7.466;2023-05-10T08:37:48;15.60;99.90
49549;DHT22;35450;44.518;7.466;2023-05-10T08:40:54;15.70;99.90
49549;DHT22;35450;44.518;7.466;2023-05-10T08:44:04;15.70;99.90
49549;DHT22;35450;44.518;7.466;2023-05-10T08:47:10;15.70;99.90
49549;DHT22;35450;44.518;7.466;2023-05-10T08:50:17;15.70;99.90
49549;DHT22;35450;44.518;7.466;2023-05-10T08:53:24;15.70;99.90
49549;DHT22;35450;44.518;7.466;2023-05-10T08:56:31;15.80;99.90
49549;DHT22;35450;44.518;7.466;2023-05-10T08:59:36;15.80;99.90
49549;DHT22;35450;44.518;7.466;2023-05-10T09:02:43;15.90;99.90
49549;DHT22;35450;44.518;7.466;2023-05-10T09:05:50;16.00;99.90
49549;DHT22;35450;44.518;7.466;2023-05-10T09:08:55;16.00;99.90
49549;DHT22;35450;44.518;7.466;2023-05-10T09:11:59;16.20;99.90
49549;DHT22;35450;44.518;7.466;2023-05-10T09:15:04;16.20;99.90
49549;DHT22;35450;44.518;7.466;2023-05-10T09:18:09;16.10;99.90
49549;DHT22;35450;44.518;7.466;2023-05-10T09:21:13;16.10;99.90
49549;DHT22;35450;44.518;7.466;2023-05-10T09:24:18;16.20;99.90
49549;DHT22;35450;44.518;7.466;2023-05-10T09:27:28;16.30;99.90
49549;DHT22;35450;44.518;7.466;2023-05-10T09:30:32;16.30;99.90
49549;DHT22;35450;44.518;7.466;2023-05-10T09:33:48;16.30;99.90
49549;DHT22;35450;44.518;7.466;2023-05-10T09:36:57;16.40;99.90
49549;DHT22;35450;44.518;7.466;2023-05-10T09:40:04;16.50;99.90
49549;DHT22;35450;44.518;7.466;2023-05-10T09:43:09;16.60;99.90
49549;DHT22;35450;44.518;7.466;2023-05-10T09:46:15;16.70;99.90
49549;DHT22;35450;44.518;7.466;2023-05-10T09:49:21;16.80;99.90
49549;DHT22;35450;44.518;7.466;2023-05-10T09:52:25;16.90;99.90
49549;DHT22;35450;44.518;7.466;2023-05-10T09:58:39;16.90;99.90
49549;DHT22;35450;44.518;7.466;2023-05-10T10:01:51;16.90;99.90
49549;DHT22;35450;44.518;7.466;2023-05-10T10:04:55;17.00;99.90
49549;DHT22;35450;44.518;7.466;2023-05-10T10:08:04;17.00;99.90
49549;DHT22;35450;44.518;7.466;2023-05-10T10:11:08;17.10;99.90
49549;DHT22;35450;44.518;7.466;2023-05-10T10:14:12;17.10;99.90
49549;DHT22;35450;44.518;7.466;2023-05-10T10:17:18;17.00;99.90
49549;DHT22;35450;44.518;7.466;2023-05-10T10:20:23;17.00;99.90
49549;DHT22;35450;44.518;7.466;2023-05-10T10:23:29;17.10;99.90
49549;DHT22;35450;44.518;7.466;2023-05-10T10:26:35;17.20;99.90
49549;DHT22;35450;44.518;7.466;2023-05-10T10:29:59;17.20;99.70
49549;DHT22;35450;44.518;7.466;2023-05-10T10:33:40;17.30;99.40
49549;DHT22;35450;44.518;7.466;2023-05-10T10:36:51;17.20;99.60
49549;DHT22;35450;44.518;7.466;2023-05-10T10:39:56;17.30;99.60
49549;DHT22;35450;44.518;7.466;2023-05-10T10:43:27;17.30;99.90
49549;DHT22;35450;44.518;7.466;2023-05-10T10:46:34;17.30;99.60
49549;DHT22;35450;44.518;7.466;2023-05-10T10:52:49;17.40;99.20
49549;DHT22;35450;44.518;7.466;2023-05-10T10:56:12;17.50;98.60
49549;DHT22;35450;44.518;7.466;2023-05-10T10:59:26;17.60;98.00
49549;DHT22;35450;44.518;7.466;2023-05-10T11:02:44;17.60;98.20
49549;DHT22;35450;44.518;7.466;2023-05-10T11:05:58;17.60;98.10
49549;DHT22;35450;44.518;7.466;2023-05-10T11:09:11;17.70;97.60
49549;DHT22;35450;44.518;7.466;2023-05-10T11:12:15;17.80;97.50
49549;DHT22;35450;44.518;7.466;2023-05-10T11:15:20;17.90;97.70
49549;DHT22;35450;44.518;7.466;2023-05-10T11:18:29;17.90;96.90
49549;DHT22;35450;44.518;7.466;2023-05-10T11:21:45;17.90;96.70
49549;DHT22;35450;44.518;7.466;2023-05-10T11:24:58;18.00;97.50
49549;DHT22;35450;44.518;7.466;2023-05-10T11:28:04;18.10;97.50
49549;DHT22;35450;44.518;7.466;2023-05-10T11:31:09;18.10;97.30
49549;DHT22;35450;44.518;7.466;2023-05-10T11:34:27;18.10;96.90
49549;DHT22;35450;44.518;7.466;2023-05-10T11:37:31;18.10;96.80
49549;DHT22;35450;44.518;7.466;2023-05-10T11:40:38;18.20;96.70
49549;DHT22;35450;44.518;7.466;2023-05-10T11:43:43;18.20;96.20
49549;DHT22;35450;44.518;7.466;2023-05-10T11:46:49;18.20;96.30
49549;DHT22;35450;44.518;7.466;2023-05-10T11:49:53;18.20;96.60
49549;DHT22;35450;44.518;7.466;2023-05-10T11:52:57;18.20;96.70
49549;DHT22;35450;44.518;7.466;2023-05-10T11:56:04;18.30;96.20
49549;DHT22;35450;44.518;7.466;2023-05-10T11:59:08;18.30;96.30
49549;DHT22;35450;44.518;7.466;2023-05-10T12:02:13;18.30;97.30
49549;DHT22;35450;44.518;7.466;2023-05-10T12:05:18;18.40;96.80
49549;DHT22;35450;44.518;7.466;2023-05-10T12:08:27;18.30;96.40
49549;DHT22;35450;44.518;7.466;2023-05-10T12:11:30;18.30;97.20
49549;DHT22;35450;44.518;7.466;2023-05-10T12:14:35;18.40;97.10
49549;DHT22;35450;44.518;7.466;2023-05-10T12:17:39;18.40;96.50
49549;DHT22;35450;44.518;7.466;2023-05-10T12:20:46;18.50;96.50
49549;DHT22;35450;44.518;7.466;2023-05-10T12:23:52;18.60;96.20
49549;DHT22;35450;44.518;7.466;2023-05-10T12:26:57;18.60;95.40
49549;DHT22;35450;44.518;7.466;2023-05-10T12:30:02;18.70;95.30
49549;DHT22;35450;44.518;7.466;2023-05-10T12:33:13;18.80;95.90
49549;DHT22;35450;44.518;7.466;2023-05-10T12:36:24;18.80;96.10
49549;DHT22;35450;44.518;7.466;2023-05-10T12:39:43;18.80;95.60
49549;DHT22;35450;44.518;7.466;2023-05-10T12:42:47;18.70;96.30
49549;DHT22;35450;44.518;7.466;2023-05-10T12:45:52;18.70;96.60
49549;DHT22;35450;44.518;7.466;2023-05-10T12:48:56;18.70;96.10
49549;DHT22;35450;44.518;7.466;2023-05-10T12:52:01;18.80;96.50
49549;DHT22;35450;44.518;7.466;2023-05-10T12:55:05;18.60;97.00
49549;DHT22;35450;44.518;7.466;2023-05-10T12:58:09;18.50;96.70
49549;DHT22;35450;44.518;7.466;2023-05-10T13:01:14;18.60;96.70
49549;DHT22;35450;44.518;7.466;2023-05-10T13:04:18;18.70;97.30
49549;DHT22;35450;44.518;7.466;2023-05-10T13:07:22;18.80;96.40
49549;DHT22;35450;44.518;7.466;2023-05-10T13:10:26;18.90;96.10
49549;DHT22;35450;44.518;7.466;2023-05-10T13:13:30;18.70;96.90
49549;DHT22;35450;44.518;7.466;2023-05-10T13:16:34;18.70;96.70
49549;DHT22;35450;44.518;7.466;2023-05-10T13:19:38;18.70;96.90
49549;DHT22;35450;44.518;7.466;2023-05-10T13:22:45;18.80;96.60
49549;DHT22;35450;44.518;7.466;2023-05-10T13:25:50;18.90;97.10
49549;DHT22;35450;44.518;7.466;2023-05-10T13:28:54;19.10;97.20
49549;DHT22;35450;44.518;7.466;2023-05-10T13:31:59;19.20;96.90
49549;DHT22;35450;44.518;7.466;2023-05-10T13:35:04;19.30;96.70
49549;DHT22;35450;44.518;7.466;2023-05-10T13:38:08;19.30;96.50
49549;DHT22;35450;44.518;7.466;2023-05-10T13:41:12;19.30;96.60
49549;DHT22;35450;44.518;7.466;2023-05-10T13:44:16;19.30;96.60
49549;DHT22;35450;44.518;7.466;2023-05-10T13:47:20;19.30;96.70
49549;DHT22;35450;44.518;7.466;2023-05-10T13:50:26;19.20;96.40
49549;DHT22;35450;44.518;7.466;2023-05-10T13:53:30;19.20;96.70
49549;DHT22;35450;44.518;7.466;2023-05-10T13:56:34;19.10;96.40
49549;DHT22;35450;44.518;7.466;2023-05-10T13:59:38;18.90;96.80
49549;DHT22;35450;44.518;7.466;2023-05-10T14:02:43;18.90;97.10
49549;DHT22;35450;44.518;7.466;2023-05-10T14:05:47;18.80;96.70
49549;DHT22;35450;44.518;7.466;2023-05-10T14:08:51;18.90;96.90
49549;DHT22;35450;44.518;7.466;2023-05-10T14:11:55;18.90;97.10
49549;DHT22;35450;44.518;7.466;2023-05-10T14:14:59;19.00;96.40
49549;DHT22;35450;44.518;7.466;2023-05-10T14:18:03;19.00;96.20
49549;DHT22;35450;44.518;7.466;2023-05-10T14:21:07;19.10;96.40
49549;DHT22;35450;44.518;7.466;2023-05-10T14:24:12;19.10;95.70
49549;DHT22;35450;44.518;7.466;2023-05-10T14:27:16;19.10;95.50
49549;DHT22;35450;44.518;7.466;2023-05-10T14:30:20;19.00;95.70
49549;DHT22;35450;44.518;7.466;2023-05-10T14:33:24;18.90;96.40
49549;DHT22;35450;44.518;7.466;2023-05-10T14:36:29;18.70;96.50
49549;DHT22;35450;44.518;7.466;2023-05-10T14:39:33;18.60;96.50
49549;DHT22;35450;44.518;7.466;2023-05-10T14:42:37;18.60;96.70
49549;DHT22;35450;44.518;7.466;2023-05-10T14:45:41;18.60;96.50
49549;DHT22;35450;44.518;7.466;2023-05-10T14:48:45;18.60;96.70
49549;DHT22;35450;44.518;7.466;2023-05-10T14:51:49;18.50;96.60
49549;DHT22;35450;44.518;7.466;2023-05-10T14:54:53;18.40;96.10
49549;DHT22;35450;44.518;7.466;2023-05-10T14:57:57;18.30;96.60
49549;DHT22;35450;44.518;7.466;2023-05-10T15:01:02;18.30;96.90
49549;DHT22;35450;44.518;7.466;2023-05-10T15:04:06;18.40;96.60
49549;DHT22;35450;44.518;7.466;2023-05-10T15:07:10;18.30;96.70
49549;DHT22;35450;44.518;7.466;2023-05-10T15:10:18;18.30;96.80
49549;DHT22;35450;44.518;7.466;2023-05-10T15:13:22;18.40;96.90
49549;DHT22;35450;44.518;7.466;2023-05-10T15:16:26;18.40;97.40
49549;DHT22;35450;44.518;7.466;2023-05-10T15:19:30;18.30;98.20
49549;DHT22;35450;44.518;7.466;2023-05-10T15:22:34;18.20;98.00
49549;DHT22;35450;44.518;7.466;2023-05-10T15:25:39;18.10;98.10
49549;DHT22;35450;44.518;7.466;2023-05-10T15:28:43;18.00;98.20
49549;DHT22;35450;44.518;7.466;2023-05-10T15:31:50;18.10;98.70
49549;DHT22;35450;44.518;7.466;2023-05-10T15:34:55;18.00;99.00
49549;DHT22;35450;44.518;7.466;2023-05-10T15:37:59;18.00;99.30
49549;DHT22;35450;44.518;7.466;2023-05-10T15:41:03;18.00;99.40
49549;DHT22;35450;44.518;7.466;2023-05-10T15:44:08;18.00;99.80
49549;DHT22;35450;44.518;7.466;2023-05-10T15:47:12;17.90;99.50
49549;DHT22;35450;44.518;7.466;2023-05-10T15:50:17;17.80;99.70
49549;DHT22;35450;44.518;7.466;2023-05-10T15:53:21;17.70;99.90
49549;DHT22;35450;44.518;7.466;2023-05-10T15:56:25;17.60;99.90
49549;DHT22;35450;44.518;7.466;2023-05-10T15:59:29;17.50;99.90
49549;DHT22;35450;44.518;7.466;2023-05-10T16:02:33;17.30;99.90
49549;DHT22;35450;44.518;7.466;2023-05-10T16:05:37;17.40;99.90
49549;DHT22;35450;44.518;7.466;2023-05-10T16:08:41;17.40;99.90
49549;DHT22;35450;44.518;7.466;2023-05-10T16:11:45;17.40;99.90
49549;DHT22;35450;44.518;7.466;2023-05-10T16:14:49;17.50;99.90
49549;DHT22;35450;44.518;7.466;2023-05-10T16:17:54;17.40;99.80
49549;DHT22;35450;44.518;7.466;2023-05-10T16:20:58;17.20;99.30
49549;DHT22;35450;44.518;7.466;2023-05-10T16:24:02;17.10;98.90
49549;DHT22;35450;44.518;7.466;2023-05-10T16:27:06;17.00;99.10
49549;DHT22;35450;44.518;7.466;2023-05-10T16:30:10;17.10;99.90
49549;DHT22;35450;44.518;7.466;2023-05-10T16:33:15;16.90;99.90
49549;DHT22;35450;44.518;7.466;2023-05-10T16:36:20;16.80;99.40
49549;DHT22;35450;44.518;7.466;2023-05-10T16:39:24;16.80;99.10
49549;DHT22;35450;44.518;7.466;2023-05-10T16:42:28;16.90;98.80
49549;DHT22;35450;44.518;7.466;2023-05-10T16:45:32;16.90;99.10
49549;DHT22;35450;44.518;7.466;2023-05-10T16:48:37;17.00;99.10
49549;DHT22;35450;44.518;7.466;2023-05-10T16:51:42;17.10;99.50
49549;DHT22;35450;44.518;7.466;2023-05-10T16:54:46;17.20;99.80
49549;DHT22;35450;44.518;7.466;2023-05-10T16:57:50;17.30;99.90
49549;DHT22;35450;44.518;7.466;2023-05-10T17:00:54;17.40;99.90
49549;DHT22;35450;44.518;7.466;2023-05-10T17:03:58;17.40;99.90
49549;DHT22;35450;44.518;7.466;2023-05-10T17:07:02;17.30;99.90
49549;DHT22;35450;44.518;7.466;2023-05-10T17:10:06;17.40;99.90
49549;DHT22;35450;44.518;7.466;2023-05-10T17:13:10;17.40;99.90
49549;DHT22;35450;44.518;7.466;2023-05-10T17:16:14;17.40;99.90
49549;DHT22;35450;44.518;7.466;2023-05-10T17:19:19;17.40;99.90
49549;DHT22;35450;44.518;7.466;2023-05-10T17:22:23;17.40;99.90
49549;DHT22;35450;44.518;7.466;2023-05-10T17:25:28;17.40;99.90
49549;DHT22;35450;44.518;7.466;2023-05-10T17:28:32;17.40;99.90
49549;DHT22;35450;44.518;7.466;2023-05-10T17:31:37;17.40;99.90
49549;DHT22;35450;44.518;7.466;2023-05-10T17:34:41;17.40;99.90
49549;DHT22;35450;44.518;7.466;2023-05-10T17:37:45;17.20;99.90
49549;DHT22;35450;44.518;7.466;2023-05-10T17:40:50;17.30;99.90
49549;DHT22;35450;44.518;7.466;2023-05-10T17:43:54;17.20;99.90
49549;DHT22;35450;44.518;7.466;2023-05-10T17:46:58;17.00;99.90
49549;DHT22;35450;44.518;7.466;2023-05-10T17:50:03;17.20;99.90
49549;DHT22;35450;44.518;7.466;2023-05-10T17:53:10;17.20;99.90
49549;DHT22;35450;44.518;7.466;2023-05-10T17:56:14;17.00;99.90
49549;DHT22;35450;44.518;7.466;2023-05-10T17:59:18;16.80;99.90
49549;DHT22;35450;44.518;7.466;2023-05-10T18:02:22;16.80;99.90
49549;DHT22;35450;44.518;7.466;2023-05-10T18:05:28;17.00;99.90
49549;DHT22;35450;44.518;7.466;2023-05-10T18:08:32;17.00;99.90
49549;DHT22;35450;44.518;7.466;2023-05-10T18:11:36;17.10;99.90
49549;DHT22;35450;44.518;7.466;2023-05-10T18:14:41;17.10;99.90
49549;DHT22;35450;44.518;7.466;2023-05-10T18:17:45;17.10;99.90
49549;DHT22;35450;44.518;7.466;2023-05-10T18:20:49;17.00;99.90
49549;DHT22;35450;44.518;7.466;2023-05-10T18:23:59;16.90;99.90
49549;DHT22;35450;44.518;7.466;2023-05-10T18:27:03;16.80;99.90
49549;DHT22;35450;44.518;7.466;2023-05-10T18:30:08;16.70;99.90
49549;DHT22;35450;44.518;7.466;2023-05-10T18:33:14;16.80;99.90
49549;DHT22;35450;44.518;7.466;2023-05-10T18:36:19;16.80;99.90
49549;DHT22;35450;44.518;7.466;2023-05-10T18:39:23;16.90;99.90
49549;DHT22;35450;44.518;7.466;2023-05-10T18:42:27;16.90;99.90
49549;DHT22;35450;44.518;7.466;2023-05-10T18:45:31;16.90;99.90
49549;DHT22;35450;44.518;7.466;2023-05-10T18:48:35;16.80;99.90
49549;DHT22;35450;44.518;7.466;2023-05-10T18:51:39;16.70;99.90
49549;DHT22;35450;44.518;7.466;2023-05-10T18:54:43;16.60;99.90
49549;DHT22;35450;44.518;7.466;2023-05-10T18:57:47;16.60;99.90
49549;DHT22;35450;44.518;7.466;2023-05-10T19:00:51;16.60;99.90
49549;DHT22;35450;44.518;7.466;2023-05-10T19:03:56;16.60;99.90
49549;DHT22;35450;44.518;7.466;2023-05-10T19:07:00;16.60;99.90
49549;DHT22;35450;44.518;7.466;2023-05-10T19:10:06;16.40;99.90
49549;DHT22;35450;44.518;7.466;2023-05-10T19:13:10;16.30;99.90
49549;DHT22;35450;44.518;7.466;2023-05-10T19:16:16;16.40;99.90
49549;DHT22;35450;44.518;7.466;2023-05-10T19:19:20;16.40;99.90
49549;DHT22;35450;44.518;7.466;2023-05-10T19:22:24;16.20;99.90
49549;DHT22;35450;44.518;7.466;2023-05-10T19:25:28;16.10;99.90
49549;DHT22;35450;44.518;7.466;2023-05-10T19:28:33;16.00;99.90
49549;DHT22;35450;44.518;7.466;2023-05-10T19:31:38;15.90;99.90
49549;DHT22;35450;44.518;7.466;2023-05-10T19:34:44;15.90;99.90
49549;DHT22;35450;44.518;7.466;2023-05-10T19:37:49;16.00;99.90
49549;DHT22;35450;44.518;7.466;2023-05-10T19:40:54;16.00;99.90
49549;DHT22;35450;44.518;7.466;2023-05-10T19:44:01;16.10;99.90
49549;DHT22;35450;44.518;7.466;2023-05-10T19:47:09;16.00;99.90
49549;DHT22;35450;44.518;7.466;2023-05-10T19:50:14;16.00;99.90